Time;durP1;ratioP1;P1;durP2;ratioP2;P2;SDS_P1;SDS_P2;PMS_P1;PMS_P2;Temp;Humidity;BMP_temperature;BMP_pressure;BME280_temperature;BME280_humidity;BME280_pressure;Samples;Min_cycle;Max_cycle;Signal;HPM_P1;HPM_P2
2023/08/17 00:01:41;;;;;;;13.43;9.15;;;18.40;99.90;;;18.29;100.00;97393.06;5042751;28;20214;-39
2023/08/17 00:04:07;;;;;;;13.50;10.15;;;18.40;99.90;;;18.31;100.00;97393.81;5044365;28;20469;-40
2023/08/17 00:06:33;;;;;;;13.32;10.57;;;18.40;99.90;;;18.31;100.00;97395.63;5044506;28;20489;-38
2023/08/17 00:08:59;;;;;;;11.98;9.18;;;18.40;99.90;;;18.33;100.00;97396.38;5041595;28;20529;-40
2023/08/17 00:11:25;;;;;;;11.82;10.30;;;18.40;99.90;;;18.31;100.00;97399.13;5043953;28;20124;-39
2023/08/17 00:13:50;;;;;;;11.75;8.80;;;18.40;99.90;;;18.31;100.00;97392.97;5042790;28;20104;-38
2023/08/17 00:16:16;;;;;;;12.32;9.25;;;18.40;99.90;;;18.33;100.00;97390.19;5047102;28;20327;-40
2023/08/17 00:18:42;;;;;;;10.05;8.23;;;18.40;99.90;;;18.34;100.00;97390.09;5047529;28;20036;-39
2023/08/17 00:21:08;;;;;;;11.55;9.75;;;18.40;99.90;;;18.35;100.00;97388.25;5046142;28;20021;-40
2023/08/17 00:23:35;;;;;;;10.93;9.48;;;18.40;99.90;;;18.34;100.00;97387.41;5044466;28;20499;-39
2023/08/17 00:26:00;;;;;;;14.27;11.48;;;18.50;99.90;;;18.44;100.00;97400.97;5042694;28;20028;-39
2023/08/17 00:28:26;;;;;;;14.20;11.30;;;18.50;99.90;;;18.45;100.00;97400.88;5044167;28;20032;-39
2023/08/17 00:30:52;;;;;;;12.98;10.05;;;18.50;99.90;;;18.45;100.00;97395.53;5043416;28;20067;-39
2023/08/17 00:33:18;;;;;;;11.07;9.18;;;18.50;99.90;;;18.43;100.00;97389.44;5044192;28;20033;-39
2023/08/17 00:35:45;;;;;;;11.07;9.30;;;18.50;99.90;;;18.41;100.00;97385.16;5042904;28;20120;-39
2023/08/17 00:38:11;;;;;;;13.32;9.40;;;18.50;99.90;;;18.42;100.00;97377.03;5045171;28;20029;-39
2023/08/17 00:40:37;;;;;;;10.10;8.75;;;18.50;99.90;;;18.42;100.00;97371.69;5042661;28;20072;-40
2023/08/17 00:43:05;;;;;;;12.38;8.82;;;18.50;99.90;;;18.42;100.00;97371.69;5045616;28;20054;-39
2023/08/17 00:45:31;;;;;;;11.18;8.13;;;18.50;99.90;;;18.41;100.00;97382.47;5045749;28;20027;-39
2023/08/17 00:47:58;;;;;;;8.90;7.75;;;18.50;99.90;;;18.37;100.00;97376.50;5042189;28;20082;-38
2023/08/17 00:50:28;;;;;;;9.88;8.75;;;18.50;99.90;;;18.37;100.00;97387.19;5044490;28;20025;-39
2023/08/17 00:52:56;;;;;;;11.00;8.07;;;18.50;99.90;;;18.33;100.00;97379.50;5042857;28;20040;-38
2023/08/17 00:55:22;;;;;;;12.05;8.48;;;18.50;99.90;;;18.38;100.00;97374.72;5041706;28;20025;-38
2023/08/17 00:57:47;;;;;;;9.10;7.72;;;18.50;99.90;;;18.34;100.00;97366.06;5043132;28;20126;-39
2023/08/17 01:00:14;;;;;;;9.55;7.45;;;18.40;99.90;;;18.27;100.00;97362.09;5040874;28;20104;-40
2023/08/17 01:02:42;;;;;;;7.63;6.72;;;18.40;99.90;;;18.26;100.00;97363.06;5041805;28;20024;-40
2023/08/17 01:05:08;;;;;;;7.68;6.32;;;18.30;99.90;;;18.21;100.00;97362.50;5041164;28;20353;-39
2023/08/17 01:07:34;;;;;;;9.57;7.75;;;18.30;99.90;;;18.20;100.00;97361.66;5043182;28;20131;-39
2023/08/17 01:10:01;;;;;;;10.25;7.53;;;18.30;99.90;;;18.30;100.00;97370.75;5044968;28;20037;-39
2023/08/17 01:12:38;;;;;;;8.07;7.22;;;18.40;99.90;;;18.39;100.00;97373.72;5046136;28;20024;-39
2023/08/17 01:15:21;;;;;;;9.27;7.57;;;18.50;99.90;;;18.46;100.00;97375.88;5039013;28;20048;-39
2023/08/17 01:18:05;;;;;;;9.75;7.90;;;18.50;99.90;;;18.54;100.00;97371.81;5041930;28;20138;-39
2023/08/17 01:20:31;;;;;;;12.30;8.02;;;18.60;99.90;;;18.55;100.00;97368.19;5041289;28;20063;-39
2023/08/17 01:23:05;;;;;;;8.80;7.50;;;18.70;99.90;;;18.65;100.00;97378.13;5042613;28;20060;-39
2023/08/17 01:25:30;;;;;;;8.82;7.20;;;18.70;99.90;;;18.68;100.00;97374.38;5036290;28;20815;-39
2023/08/17 01:27:58;;;;;;;7.97;7.07;;;18.80;99.90;;;18.73;100.00;97366.03;5041479;28;20558;-40
2023/08/17 01:30:24;;;;;;;9.95;7.93;;;18.80;99.90;;;18.75;100.00;97372.97;5041932;28;20064;-39
2023/08/17 01:32:59;;;;;;;10.15;7.80;;;18.80;99.90;;;18.77;100.00;97368.41;5041720;28;20538;-40
2023/08/17 01:35:38;;;;;;;9.70;8.10;;;18.80;99.90;;;18.77;100.00;97371.06;5042093;28;20032;-40
2023/08/17 01:38:12;;;;;;;8.32;6.45;;;18.80;99.90;;;18.78;100.00;97362.06;5042402;28;20488;-39
2023/08/17 01:40:38;;;;;;;9.07;7.53;;;18.80;99.90;;;18.76;100.00;97355.16;5052878;28;20044;-40
2023/08/17 01:43:04;;;;;;;8.20;7.10;;;18.90;99.90;;;18.81;100.00;97356.56;5042348;28;20029;-38
2023/08/17 01:45:30;;;;;;;10.50;8.00;;;18.90;99.90;;;18.80;100.00;97346.78;5039829;28;20051;-39
2023/08/17 01:47:56;;;;;;;8.38;7.45;;;18.90;99.90;;;18.84;100.00;97356.34;5043219;28;20021;-39
2023/08/17 01:50:22;;;;;;;9.48;7.45;;;18.90;99.90;;;18.84;100.00;97348.34;5042909;28;20330;-39
2023/08/17 01:52:47;;;;;;;8.10;7.18;;;18.90;99.90;;;18.87;100.00;97356.09;5043347;28;20063;-38
2023/08/17 01:55:13;;;;;;;11.45;9.10;;;18.90;99.90;;;18.86;100.00;97359.75;5042054;28;20025;-40
2023/08/17 01:57:39;;;;;;;8.98;6.93;;;18.90;99.90;;;18.87;100.00;97363.28;5041393;28;20086;-39
2023/08/17 02:00:06;;;;;;;9.52;7.75;;;18.90;99.90;;;18.87;100.00;97366.78;5042009;28;20017;-39
2023/08/17 02:02:31;;;;;;;12.18;9.05;;;19.00;99.90;;;18.86;100.00;97354.41;5041528;28;20055;-39
2023/08/17 02:04:57;;;;;;;9.48;6.78;;;19.00;99.90;;;18.89;100.00;97361.34;5041386;28;20029;-39
2023/08/17 02:07:23;;;;;;;8.82;7.28;;;19.00;99.90;;;18.89;100.00;97356.84;5043009;28;20060;-39
2023/08/17 02:09:49;;;;;;;12.63;9.13;;;19.00;99.90;;;18.87;100.00;97358.78;5044326;28;20382;-38
2023/08/17 02:12:14;;;;;;;10.30;8.48;;;19.00;99.90;;;18.86;100.00;97359.75;5043165;28;20023;-39
2023/08/17 02:14:40;;;;;;;9.82;8.82;;;18.90;99.90;;;18.89;100.00;97354.19;5037537;28;20029;-39
2023/08/17 02:17:06;;;;;;;11.45;9.55;;;19.00;99.90;;;18.91;100.00;97351.41;5039722;28;20036;-40
2023/08/17 02:19:32;;;;;;;13.50;8.68;;;19.00;99.90;;;18.93;100.00;97340.59;5042377;28;20032;-39
2023/08/17 02:25:40;;;;;;;16.88;11.48;;;19.00;99.90;;;18.96;100.00;97343.06;5030708;28;20098;-39
2023/08/17 02:28:06;;;;;;;11.02;9.60;;;19.10;99.90;;;18.95;100.00;97341.34;5042310;28;20660;-40
2023/08/17 02:30:32;;;;;;;9.68;8.00;;;19.00;99.90;;;18.95;100.00;97341.34;5042713;28;20025;-39
2023/08/17 02:32:57;;;;;;;12.32;9.40;;;19.00;99.90;;;18.95;100.00;97342.22;5042545;28;20128;-38
2023/08/17 02:35:23;;;;;;;10.13;8.65;;;19.00;99.90;;;18.97;100.00;97339.41;5042132;28;20079;-38
2023/08/17 02:37:49;;;;;;;11.13;8.10;;;19.00;99.90;;;19.00;100.00;97340.03;5042392;28;20088;-38
2023/08/17 02:40:14;;;;;;;9.18;8.13;;;19.00;99.90;;;19.02;100.00;97338.13;5042873;28;20078;-38
2023/08/17 02:42:40;;;;;;;9.63;7.90;;;19.10;99.90;;;19.03;100.00;97328.28;5041663;28;20033;-39
2023/08/17 02:45:08;;;;;;;10.27;8.80;;;19.10;99.90;;;19.03;100.00;97336.31;5040838;28;20032;-40
2023/08/17 02:47:33;;;;;;;11.95;9.57;;;19.10;99.90;;;18.94;100.00;97324.47;5057106;28;20029;-39
2023/08/17 02:49:59;;;;;;;12.52;8.93;;;19.10;99.90;;;19.00;100.00;97329.34;5042157;28;20507;-39
2023/08/17 02:52:25;;;;;;;10.25;8.32;;;19.10;99.90;;;19.01;100.00;97324.88;5043514;28;20086;-40
2023/08/17 02:54:50;;;;;;;9.20;7.43;;;19.10;99.90;;;19.01;100.00;97325.72;5040247;28;20025;-39
2023/08/17 02:57:17;;;;;;;8.75;7.40;;;19.10;99.90;;;19.03;100.00;97320.28;5043550;28;20063;-39
2023/08/17 02:59:43;;;;;;;7.68;6.72;;;19.10;99.90;;;19.04;100.00;97321.97;5044142;28;20535;-39
2023/08/17 03:02:08;;;;;;;10.30;8.13;;;19.10;99.90;;;19.04;100.00;97325.50;5040468;28;20032;-40
2023/08/17 03:04:34;;;;;;;11.15;7.90;;;19.10;99.90;;;19.02;100.00;97319.44;5044547;28;20032;-38
2023/08/17 03:07:00;;;;;;;12.88;8.30;;;19.10;99.90;;;19.03;100.00;97312.25;5039985;28;20508;-39
2023/08/17 03:09:25;;;;;;;12.32;7.93;;;19.10;99.90;;;19.04;100.00;97312.16;5045342;28;20025;-38
2023/08/17 03:11:52;;;;;;;10.30;7.40;;;19.10;99.90;;;19.03;100.00;97305.09;5041082;28;20037;-39
2023/08/17 03:14:17;;;;;;;9.82;8.50;;;19.10;99.90;;;19.05;100.00;97305.81;5038582;28;20330;-38
2023/08/17 03:16:43;;;;;;;12.00;8.60;;;19.20;99.90;;;19.07;100.00;97303.03;5041116;28;20036;-39
2023/08/17 03:19:11;;;;;;;16.88;12.15;;;19.20;99.90;;;19.04;100.00;97303.25;5043620;28;20036;-40
2023/08/17 03:21:37;;;;;;;13.95;10.30;;;19.20;99.90;;;19.02;100.00;97294.50;5040376;28;20103;-38
2023/08/17 03:24:03;;;;;;;15.65;12.35;;;19.10;99.90;;;18.99;100.00;97308.97;5040736;28;20043;-39
2023/08/17 03:26:29;;;;;;;12.38;10.68;;;19.10;99.90;;;18.95;100.00;97294.13;5043101;28;20017;-40
2023/08/17 03:28:55;;;;;;;14.10;9.75;;;19.10;99.90;;;19.00;100.00;97293.75;5042338;28;20032;-38
2023/08/17 03:31:21;;;;;;;21.27;10.98;;;19.10;99.90;;;19.00;100.00;97304.44;5041542;28;20035;-38
2023/08/17 03:33:48;;;;;;;14.43;10.43;;;19.10;99.90;;;18.99;100.00;97295.59;5049011;28;20024;-38
2023/08/17 03:36:13;;;;;;;12.82;9.70;;;19.10;99.90;;;19.01;100.00;97296.34;5047517;28;20123;-39
2023/08/17 03:38:39;;;;;;;14.55;10.55;;;19.10;99.90;;;19.00;100.00;97297.28;5048424;28;20384;-39
2023/08/17 03:41:06;;;;;;;13.20;9.90;;;19.10;99.90;;;18.98;100.00;97290.34;5043424;28;20039;-38
2023/08/17 03:43:32;;;;;;;12.25;9.85;;;19.10;99.90;;;19.00;100.00;97296.44;5044585;28;20029;-39
2023/08/17 03:45:57;;;;;;;22.88;10.93;;;19.10;99.90;;;18.98;100.00;97295.69;5042870;28;20539;-39
2023/08/17 03:48:23;;;;;;;18.45;11.23;;;19.10;99.90;;;18.96;100.00;97302.97;5047128;28;20032;-38
2023/08/17 03:50:55;;;;;;;15.32;11.00;;;19.00;99.90;;;18.96;100.00;97300.31;5045662;28;20040;-39
2023/08/17 03:53:21;;;;;;;15.52;11.30;;;19.00;99.90;;;18.96;100.00;97306.50;5048899;28;20140;-38
2023/08/17 03:55:50;;;;;;;16.10;11.82;;;19.10;99.90;;;18.92;100.00;97302.34;5044594;28;20040;-38
2023/08/17 03:58:17;;;;;;;13.45;10.13;;;19.10;99.90;;;18.96;100.00;97309.16;5048175;28;20171;-39
2023/08/17 04:00:53;;;;;;;13.75;9.75;;;19.10;99.90;;;18.98;100.00;97312.56;5041503;28;20072;-38
2023/08/17 04:03:19;;;;;;;14.13;9.68;;;19.10;99.90;;;18.98;100.00;97322.41;5045343;28;20033;-39
2023/08/17 04:05:45;;;;;;;12.27;9.75;;;19.10;99.90;;;19.00;100.00;97318.66;5041428;28;20033;-38
2023/08/17 04:08:11;;;;;;;13.07;9.25;;;19.10;99.90;;;19.02;100.00;97318.56;5046942;28;20098;-39
2023/08/17 04:10:37;;;;;;;12.95;9.70;;;19.10;99.90;;;19.02;100.00;97321.22;5044644;28;20032;-38
2023/08/17 04:13:02;;;;;;;18.20;10.70;;;19.10;99.90;;;19.02;100.00;97319.44;5045938;28;20017;-38
2023/08/17 04:15:28;;;;;;;17.02;12.60;;;19.10;99.90;;;18.94;100.00;97303.09;5044702;28;20032;-39
2023/08/17 04:17:54;;;;;;;23.63;11.93;;;19.20;99.90;;;19.04;100.00;97327.31;5045234;28;20020;-39
2023/08/17 04:20:20;;;;;;;18.42;12.27;;;19.10;99.90;;;18.97;100.00;97318.03;5041373;28;20029;-39
2023/08/17 04:22:46;;;;;;;20.65;12.95;;;19.10;99.90;;;19.01;100.00;97324.88;5045340;28;20029;-39
2023/08/17 04:25:12;;;;;;;17.00;12.43;;;19.10;99.90;;;18.98;100.00;97333.97;5042589;28;20037;-39
2023/08/17 04:27:38;;;;;;;26.60;15.65;;;19.10;99.90;;;18.94;100.00;97339.66;5046436;28;21022;-39
2023/08/17 04:30:05;;;;;;;19.65;13.52;;;19.10;99.90;;;18.94;100.00;97337.81;5043139;28;20040;-38
2023/08/17 04:32:30;;;;;;;17.15;12.20;;;19.00;99.90;;;18.95;100.00;97341.34;5045373;28;20036;-39
2023/08/17 04:34:56;;;;;;;23.60;15.10;;;19.10;99.90;;;18.96;100.00;97332.38;5041581;28;20021;-38
2023/08/17 04:37:22;;;;;;;25.20;15.05;;;19.10;99.90;;;18.96;100.00;97325.19;5049991;28;20034;-39
2023/08/17 04:39:49;;;;;;;23.55;14.00;;;19.10;99.90;;;18.99;100.00;97333.00;5040354;28;20036;-38
2023/08/17 04:42:14;;;;;;;21.63;13.88;;;19.10;99.90;;;18.97;100.00;97334.06;5045302;28;20037;-39
2023/08/17 04:44:40;;;;;;;21.35;13.70;;;19.10;99.90;;;19.00;100.00;97340.03;5050008;28;20035;-38
2023/08/17 04:47:06;;;;;;;21.83;13.15;;;19.10;99.90;;;19.01;100.00;97340.91;5045724;28;20025;-39
2023/08/17 04:49:32;;;;;;;17.45;11.38;;;19.10;99.90;;;19.03;100.00;97342.50;5044774;28;20362;-39
2023/08/17 04:51:57;;;;;;;21.25;11.68;;;19.20;99.90;;;19.07;100.00;97335.97;5044191;28;20079;-38
2023/08/17 04:54:23;;;;;;;19.35;13.65;;;19.10;99.90;;;19.07;100.00;97340.47;5043683;28;20397;-38
2023/08/17 04:56:49;;;;;;;18.33;11.30;;;19.20;99.90;;;19.12;100.00;97338.31;5044559;28;20029;-39
2023/08/17 04:59:15;;;;;;;20.85;12.95;;;19.20;99.90;;;19.15;100.00;97339.91;5044399;28;20065;-39
2023/08/17 05:01:40;;;;;;;19.20;12.52;;;19.30;99.90;;;19.16;100.00;97347.81;5043390;28;20029;-39
2023/08/17 05:04:06;;;;;;;22.77;13.13;;;19.30;99.90;;;19.19;100.00;97352.09;5043083;28;20468;-38
2023/08/17 05:06:32;;;;;;;22.35;15.27;;;19.30;99.90;;;19.19;100.00;97349.41;5043125;28;20107;-40
2023/08/17 05:08:58;;;;;;;16.52;11.32;;;19.30;99.90;;;19.20;100.00;97343.97;5044077;28;20031;-39
2023/08/17 05:11:23;;;;;;;15.35;11.73;;;19.30;99.90;;;19.18;100.00;97334.34;5044571;28;20144;-40
2023/08/17 05:13:49;;;;;;;18.52;12.63;;;19.40;99.90;;;19.26;100.00;97351.53;5041390;28;20040;-40
2023/08/17 05:16:15;;;;;;;19.52;11.88;;;19.40;99.90;;;19.30;100.00;97356.66;5041309;28;20535;-39
2023/08/17 05:18:40;;;;;;;19.25;14.43;;;19.40;99.90;;;19.29;100.00;97355.81;5040637;28;20049;-39
2023/08/17 05:21:06;;;;;;;21.77;15.38;;;19.40;99.90;;;19.30;100.00;97351.31;5045828;28;20028;-40
2023/08/17 05:23:32;;;;;;;19.50;12.18;;;19.40;99.90;;;19.31;100.00;97359.22;5042999;28;20036;-39
2023/08/17 05:25:58;;;;;;;16.17;10.82;;;19.40;99.90;;;19.34;100.00;97358.13;5040744;28;20122;-41
2023/08/17 05:28:24;;;;;;;17.25;11.23;;;19.50;99.90;;;19.37;100.00;97358.75;5044890;28;20420;-39
2023/08/17 05:30:50;;;;;;;16.92;11.90;;;19.50;99.90;;;19.41;100.00;97357.56;5042800;28;20535;-39
2023/08/17 05:33:16;;;;;;;19.02;13.07;;;19.50;99.90;;;19.44;100.00;97364.53;5047428;28;20121;-40
2023/08/17 05:35:42;;;;;;;17.38;11.90;;;19.60;99.90;;;19.48;100.00;97366.00;5043504;28;20472;-38
2023/08/17 05:38:09;;;;;;;19.52;13.07;;;19.60;99.90;;;19.55;100.00;97355.72;5045043;28;20027;-40
2023/08/17 05:40:35;;;;;;;27.25;16.38;;;19.60;99.90;;;19.58;100.00;97353.66;5038639;28;20120;-38
2023/08/17 05:43:01;;;;;;;22.40;15.23;;;19.70;99.90;;;19.61;100.00;97356.13;5043883;28;20025;-38
2023/08/17 05:45:26;;;;;;;20.15;15.35;;;19.80;99.90;;;19.68;100.00;97352.97;5040905;28;20041;-39
2023/08/17 05:47:52;;;;;;;22.23;15.27;;;19.80;99.90;;;19.70;100.00;97351.03;5041106;28;20054;-41
2023/08/17 05:50:18;;;;;;;23.58;15.73;;;19.90;99.90;;;19.79;100.00;97355.72;5041705;28;20167;-40
2023/08/17 05:52:44;;;;;;;25.58;16.75;;;19.90;99.90;;;19.72;100.00;97341.06;5040061;28;20136;-40
2023/08/17 05:55:10;;;;;;;22.90;16.40;;;19.90;99.90;;;19.83;100.00;97357.22;5045945;28;20461;-40
2023/08/17 05:57:35;;;;;;;28.23;17.58;;;20.00;99.90;;;19.89;100.00;97354.06;5042813;28;20044;-40
2023/08/17 06:00:02;;;;;;;18.75;13.25;;;20.00;99.90;;;19.94;100.00;97354.56;5042810;28;20670;-40
2023/08/17 06:02:28;;;;;;;19.23;13.73;;;20.10;99.90;;;20.05;100.00;97358.28;5045399;28;20032;-40
2023/08/17 06:04:53;;;;;;;22.42;15.45;;;20.20;99.90;;;20.08;100.00;97366.03;5042920;28;20504;-40
2023/08/17 06:07:19;;;;;;;21.70;14.27;;;20.20;99.90;;;20.03;100.00;97342.31;5043948;28;20029;-39
2023/08/17 06:09:45;;;;;;;20.45;13.93;;;20.20;99.90;;;20.20;100.00;97367.78;5040832;28;20029;-40
2023/08/17 06:12:11;;;;;;;20.85;13.63;;;20.30;99.90;;;20.23;100.00;97372.91;5042802;28;20060;-41
2023/08/17 06:14:36;;;;;;;15.52;11.35;;;20.30;99.90;;;20.31;100.00;97381.19;5041634;28;20149;-40
2023/08/17 06:17:02;;;;;;;23.67;15.88;;;20.40;99.90;;;20.32;100.00;97382.91;5037397;28;20417;-40
2023/08/17 06:19:28;;;;;;;23.25;16.70;;;20.40;99.90;;;20.40;100.00;97379.63;5041337;28;20021;-41
2023/08/17 06:21:54;;;;;;;23.50;14.35;;;20.50;99.90;;;20.48;100.00;97387.09;5041406;28;20021;-40
2023/08/17 06:24:19;;;;;;;17.42;12.77;;;20.60;99.90;;;20.45;100.00;97374.78;5045719;28;20167;-41
2023/08/17 06:26:45;;;;;;;23.75;14.88;;;20.60;99.90;;;20.56;100.00;97385.50;5040458;28;20037;-39
2023/08/17 06:29:11;;;;;;;23.50;13.43;;;20.70;99.90;;;20.61;100.00;97374.47;5041435;28;20082;-40
2023/08/17 06:31:37;;;;;;;17.00;13.88;;;20.70;99.90;;;20.74;100.00;97374.38;5041773;28;20029;-40
2023/08/17 06:34:03;;;;;;;18.63;13.27;;;20.80;99.90;;;20.89;100.00;97374.97;5043274;28;21073;-43
2023/08/17 06:36:32;;;;;;;21.83;12.75;;;21.00;99.90;;;20.98;100.00;97374.28;5043589;28;20051;-42
2023/08/17 06:38:58;;;;;;;17.92;12.20;;;21.00;99.90;;;21.05;100.00;97377.28;5038190;28;20064;-41
2023/08/17 06:41:24;;;;;;;13.63;10.77;;;21.10;99.90;;;21.16;100.00;97371.94;5038157;28;20033;-41
2023/08/17 06:43:50;;;;;;;13.07;11.10;;;21.20;99.90;;;21.24;100.00;97376.69;5040893;28;20396;-40
2023/08/17 06:46:16;;;;;;;12.60;9.65;;;21.30;99.90;;;21.30;100.00;97368.13;5043120;28;20182;-40
2023/08/17 06:48:43;;;;;;;18.30;13.55;;;21.40;99.90;;;21.38;100.00;97375.56;5040497;28;20033;-41
2023/08/17 06:51:09;;;;;;;19.10;15.10;;;21.50;99.90;;;21.34;100.00;97375.81;5040839;28;20041;-40
2023/08/17 06:53:35;;;;;;;19.40;14.27;;;21.50;99.90;;;21.30;100.00;97373.47;5047980;28;20070;-40
2023/08/17 06:56:01;;;;;;;17.08;11.90;;;21.40;99.90;;;21.43;100.00;97382.25;5039091;28;20025;-40
2023/08/17 06:58:27;;;;;;;15.95;11.90;;;21.50;99.90;;;21.49;100.00;97383.63;5041463;28;20029;-41
2023/08/17 07:00:52;;;;;;;18.52;12.55;;;21.50;99.90;;;21.51;100.00;97381.66;5043275;28;20048;-41
2023/08/17 07:03:18;;;;;;;11.05;9.10;;;21.60;99.90;;;21.62;100.00;97378.09;5039975;28;20085;-40
2023/08/17 07:05:44;;;;;;;18.05;13.32;;;21.70;99.90;;;21.57;100.00;97369.56;5044257;28;20032;-41
2023/08/17 07:08:10;;;;;;;14.77;12.18;;;21.80;99.90;;;21.76;100.00;97380.47;5042182;28;20061;-41
2023/08/17 07:10:36;;;;;;;15.40;11.13;;;21.90;99.90;;;21.90;100.00;97380.19;5045335;28;20037;-42
2023/08/17 07:13:04;;;;;;;17.65;14.25;;;22.00;99.90;;;21.99;100.00;97378.56;5043576;28;20036;-40
2023/08/17 07:15:31;;;;;;;16.80;12.15;;;22.10;99.90;;;21.99;100.00;97375.03;5041763;28;20017;-40
2023/08/17 07:17:56;;;;;;;16.05;10.32;;;22.20;99.90;;;22.16;100.00;97382.50;5046166;28;20114;-39
2023/08/17 07:20:22;;;;;;;12.40;10.27;;;22.20;99.90;;;22.22;100.00;97389.22;5049334;28;20483;-41
2023/08/17 07:22:48;;;;;;;13.60;10.95;;;22.30;99.90;;;22.27;100.00;97389.69;5046265;28;20024;-41
2023/08/17 07:25:13;;;;;;;17.63;11.38;;;22.30;99.90;;;22.33;100.00;97389.19;5040365;28;20461;-41
2023/08/17 07:27:40;;;;;;;11.80;9.68;;;22.40;99.90;;;22.45;100.00;97393.53;5045542;28;20074;-41
2023/08/17 07:30:06;;;;;;;12.80;9.02;;;22.40;99.90;;;22.53;100.00;97390.16;5047086;28;20021;-41
2023/08/17 07:32:33;;;;;;;16.35;11.32;;;22.60;99.90;;;22.59;100.00;97391.47;5043436;28;20136;-42
2023/08/17 07:34:59;;;;;;;14.70;9.48;;;22.60;99.90;;;22.69;100.00;97392.38;5044785;28;20107;-41
2023/08/17 07:37:32;;;;;;;12.40;9.57;;;22.70;99.90;;;22.79;100.00;97390.63;5044570;28;20025;-41
2023/08/17 07:39:57;;;;;;;17.23;9.68;;;22.80;99.90;;;22.93;100.00;97391.22;5043297;28;20213;-41
2023/08/17 07:42:23;;;;;;;12.65;9.85;;;22.90;99.90;;;23.10;100.00;97393.34;5045415;28;20411;-42
2023/08/17 07:44:49;;;;;;;14.68;10.93;;;23.00;99.90;;;23.18;100.00;97398.03;5046305;28;20025;-44
2023/08/17 07:47:14;;;;;;;11.23;9.82;;;23.20;99.90;;;23.30;100.00;97396.94;5045992;28;20492;-41
2023/08/17 07:49:40;;;;;;;9.90;8.90;;;23.30;99.90;;;23.32;100.00;97392.28;5044778;28;20024;-41
2023/08/17 07:52:06;;;;;;;12.23;9.25;;;23.30;99.90;;;23.41;100.00;97401.38;5042558;28;20025;-40
2023/08/17 07:54:32;;;;;;;11.98;10.40;;;23.30;99.90;;;23.62;100.00;97387.81;5044257;28;20095;-40
2023/08/17 07:56:57;;;;;;;12.90;8.93;;;23.50;99.90;;;23.89;100.00;97386.34;5043662;28;20362;-41
2023/08/17 07:59:23;;;;;;;16.25;12.15;;;23.80;99.90;;;23.99;100.00;97388.03;5049345;28;20025;-41
2023/08/17 08:01:49;;;;;;;14.20;10.73;;;24.00;99.90;;;24.07;100.00;97383.78;5044138;28;20037;-41
2023/08/17 08:04:14;;;;;;;15.02;10.80;;;24.00;99.90;;;24.06;100.00;97382.91;5043507;28;20415;-42
2023/08/17 08:06:40;;;;;;;11.48;9.63;;;24.00;99.90;;;24.02;100.00;97385.03;5046072;28;20033;-41
2023/08/17 08:09:06;;;;;;;13.68;11.05;;;23.90;99.90;;;24.00;100.00;97386.19;5048100;28;20497;-41
2023/08/17 08:11:32;;;;;;;13.40;9.05;;;23.90;99.90;;;23.99;100.00;97384.47;5042300;28;20029;-41
2023/08/17 08:13:58;;;;;;;16.45;12.05;;;23.80;99.90;;;23.81;100.00;97379.81;5041694;28;20036;-42
2023/08/17 08:16:24;;;;;;;9.70;8.23;;;23.70;99.90;;;23.79;100.00;97373.66;5041643;28;20032;-41
2023/08/17 08:18:49;;;;;;;14.98;10.27;;;23.70;99.90;;;23.68;100.00;97376.47;5042283;28;20025;-40
2023/08/17 08:21:15;;;;;;;11.88;9.48;;;23.60;99.90;;;23.61;100.00;97386.09;5045417;28;20033;-40
2023/08/17 08:23:41;;;;;;;11.85;10.25;;;23.50;99.90;;;23.44;100.00;97377.72;5046213;28;20377;-40
2023/08/17 08:26:06;;;;;;;14.95;11.20;;;23.40;99.90;;;23.25;100.00;97381.19;5044053;28;20802;-40
2023/08/17 08:28:32;;;;;;;14.80;12.02;;;23.20;99.90;;;23.02;100.00;97379.66;5046674;28;20037;-40
2023/08/17 08:31:04;;;;;;;16.65;11.15;;;23.10;99.90;;;22.83;100.00;97377.75;5045665;28;20476;-41
2023/08/17 08:33:30;;;;;;;;;;;22.90;99.90;;;22.77;100.00;97376.44;5044786;28;20029;-40
2023/08/17 08:35:56;;;;;;;16.92;12.05;;;22.80;99.90;;;22.70;100.00;97372.56;5044250;28;20254;-40
2023/08/17 08:38:22;;;;;;;13.23;10.98;;;22.70;99.90;;;22.78;100.00;97380.00;5043826;28;20029;-41
2023/08/17 08:40:48;;;;;;;10.82;8.88;;;22.70;99.90;;;22.92;100.00;97378.78;5044280;28;20354;-41
2023/08/17 08:43:15;;;;;;;13.15;10.02;;;22.80;99.90;;;23.04;100.00;97383.06;5045641;28;20470;-40
2023/08/17 08:45:44;;;;;;;10.02;7.70;;;22.90;99.90;;;23.15;100.00;97383.03;5040325;28;20033;-41
2023/08/17 08:48:11;;;;;;;13.40;10.82;;;23.00;99.90;;;23.25;100.00;97377.66;5039344;28;20024;-41
2023/08/17 08:50:40;;;;;;;13.15;10.93;;;23.20;99.90;;;23.25;100.00;97367.75;5044765;28;20116;-42
2023/08/17 08:53:14;;;;;;;15.13;12.20;;;23.20;99.90;;;23.18;100.00;97373.81;5043409;28;20086;-41
2023/08/17 08:55:49;;;;;;;12.38;9.82;;;23.20;99.90;;;23.25;100.00;97369.59;5044841;28;20253;-41
2023/08/17 08:58:18;;;;;;;10.90;8.55;;;23.20;99.90;;;23.29;100.00;97372.84;5046019;28;20021;-40
2023/08/17 09:00:47;;;;;;;13.43;9.73;;;23.30;99.90;;;23.34;100.00;97376.84;5042643;28;20033;-41
2023/08/17 09:03:16;;;;;;;14.73;8.52;;;23.30;99.90;;;23.43;100.00;97380.53;5047925;28;20051;-40
2023/08/17 09:05:45;;;;;;;11.73;9.77;;;23.40;99.90;;;23.44;100.00;97375.03;5047732;28;20052;-41
2023/08/17 09:08:12;;;;;;;12.52;9.05;;;23.40;99.90;;;23.51;100.00;97374.47;5043053;28;20095;-41
2023/08/17 09:10:38;;;;;;;10.95;7.70;;;23.50;99.90;;;23.64;100.00;97375.06;5046969;28;20351;-41
2023/08/17 09:13:04;;;;;;;9.25;7.47;;;23.60;99.90;;;23.70;100.00;97373.66;5047055;28;20028;-43
2023/08/17 09:15:29;;;;;;;9.88;8.52;;;23.60;99.90;;;23.71;100.00;97368.13;5044520;28;20095;-41
2023/08/17 09:17:57;;;;;;;14.85;11.48;;;23.70;99.90;;;23.64;100.00;97375.91;5044014;28;20033;-41
2023/08/17 09:20:41;;;;;;;10.32;7.80;;;23.70;99.90;;;23.66;100.00;97366.88;5044768;28;20064;-40
2023/08/17 09:23:19;;;;;;;10.40;7.93;;;23.70;99.90;;;23.78;100.00;97365.75;5042938;28;20025;-40
2023/08/17 09:25:46;;;;;;;9.68;7.22;;;23.80;99.90;;;23.97;100.00;97373.00;5043297;28;20051;-41
2023/08/17 09:28:18;;;;;;;11.20;9.40;;;23.90;99.90;;;24.00;100.00;97368.19;5047665;28;20041;-40
2023/08/17 09:31:03;;;;;;;15.23;9.80;;;24.00;99.90;;;24.15;100.00;97376.69;5044451;28;20036;-39
2023/08/17 09:33:32;;;;;;;10.02;6.90;;;24.10;99.90;;;24.41;100.00;97368.03;5045542;28;20429;-40
2023/08/17 09:35:59;;;;;;;11.90;9.70;;;24.40;99.90;;;24.63;100.00;97360.63;5043761;28;20051;-42
2023/08/17 09:38:27;;;;;;;13.88;7.70;;;24.60;99.90;;;24.83;100.00;97367.66;5044872;28;20047;-41
2023/08/17 09:40:52;;;;;;;13.40;7.47;;;24.80;99.90;;;25.07;100.00;97363.59;5041672;28;20167;-40
2023/08/17 09:43:20;;;;;;;12.00;9.10;;;25.10;99.90;;;25.14;100.00;97368.25;5043979;28;20877;-40
2023/08/17 09:45:49;;;;;;;12.10;9.27;;;25.20;99.90;;;25.26;100.00;97366.22;5042046;28;20029;-42
2023/08/17 09:48:19;;;;;;;14.88;11.02;;;25.30;99.90;;;25.24;100.00;97367.34;5045692;28;20489;-40
2023/08/17 09:50:47;;;;;;;14.75;9.35;;;25.40;99.90;;;25.24;100.00;97367.34;5044169;28;20120;-41
2023/08/17 09:53:15;;;;;;;9.52;7.82;;;25.40;99.90;;;25.30;100.00;97366.78;5042118;28;20020;-45
2023/08/17 09:55:45;;;;;;;11.13;9.48;;;25.40;99.90;;;25.32;100.00;97362.94;5042165;28;20520;-41
2023/08/17 09:58:15;;;;;;;8.07;7.03;;;25.40;99.90;;;25.37;100.00;97373.28;5044152;28;20392;-40
2023/08/17 10:00:49;;;;;;;8.70;6.80;;;25.30;99.90;;;25.38;100.00;97357.94;5041390;28;20028;-41
2023/08/17 10:03:16;;;;;;;8.80;7.03;;;25.40;99.90;;;25.37;100.00;97364.34;5042752;28;20833;-40
2023/08/17 10:05:58;;;;;;;18.17;11.07;;;25.30;99.90;;;25.30;100.00;97358.69;5039487;28;20074;-40
2023/08/17 10:08:24;;;;;;;12.50;10.73;;;25.40;99.90;;;25.31;100.00;97350.44;5043209;28;20037;-41